KXF weather

Koro Island Airport
Koro Island, Eastern, Fiji

Public forecast

Using degrees Celsius for public forecast. Weather courtesy of forecast.io.

Closest aviation weather report (METAR) to Koro Island Airport

Report is more than 6 hours old.

Closest report is Savusavu Airport, 32.9 nm (61.0 km) N. Retrieved 2020/07/20 02:00 UTC (17 days ago):

NFNS 200200Z AUTO 21007KT //// Q////

Closest aviation forecast (TAF) to Koro Island Airport

Closest forecast is Nausori International Airport, 64.7 nm (119.9 km) SW. Retrieved 2020/08/06 06:00 UTC (3 hours ago):

TAF NFNA 060511Z 0606/0706 12005KT 9999 BKN022 BKN048